Time;durP1;ratioP1;P1;durP2;ratioP2;P2;SDS_P1;SDS_P2;PMS_P1;PMS_P2;Temp;Humidity;BMP_temperature;BMP_pressure;BME280_temperature;BME280_humidity;BME280_pressure;Samples;Min_cycle;Max_cycle;Signal;HPM_P1;HPM_P2
2022/07/18 00:00:43;;;;;;;6.72;2.95;;;;;;;;;;5118802;27;20035;-64
2022/07/18 00:03:09;;;;;;;6.38;3.28;;;;;;;;;;5122701;27;20076;-65
2022/07/18 00:05:36;;;;;;;7.97;3.97;;;;;;;;;;5122039;27;20047;-65
2022/07/18 00:08:02;;;;;;;6.03;3.67;;;;;;;;;;5121184;27;20035;-65
2022/07/18 00:10:28;;;;;;;7.93;3.63;;;;;;;;;;5103767;27;20435;-65
2022/07/18 00:12:54;;;;;;;10.88;4.05;;;;;;;;;;5119364;27;20059;-65
2022/07/18 00:15:20;;;;;;;6.95;4.30;;;;;;;;;;5117628;27;20068;-65
2022/07/18 00:17:47;;;;;;;7.88;3.92;;;;;;;;;;5119350;27;20042;-64
2022/07/18 00:20:13;;;;;;;10.30;4.07;;;;;;;;;;5120274;27;20726;-65
2022/07/18 00:22:39;;;;;;;8.27;3.80;;;;;;;;;;5120998;27;20038;-65
2022/07/18 00:25:06;;;;;;;7.75;4.00;;;;;;;;;;5118763;27;20095;-65
2022/07/18 00:27:32;;;;;;;5.95;3.83;;;;;;;;;;5122130;27;20045;-67
2022/07/18 00:29:58;;;;;;;7.63;4.32;;;;;;;;;;5100773;27;20055;-66
2022/07/18 00:32:25;;;;;;;7.10;4.00;;;;;;;;;;5099328;27;20132;-65
2022/07/18 00:34:51;;;;;;;7.72;4.45;;;;;;;;;;5118728;27;20118;-65
2022/07/18 00:37:17;;;;;;;8.68;4.85;;;;;;;;;;5116810;27;20102;-65
2022/07/18 00:39:43;;;;;;;9.30;4.40;;;;;;;;;;5103455;27;20039;-65
2022/07/18 00:42:09;;;;;;;10.13;4.43;;;;;;;;;;5117161;27;20039;-65
2022/07/18 00:44:36;;;;;;;10.48;4.45;;;;;;;;;;5095316;27;20136;-65
2022/07/18 00:47:03;;;;;;;11.70;4.95;;;;;;;;;;5115772;27;20125;-65
2022/07/18 00:49:29;;;;;;;7.45;4.82;;;;;;;;;;5121944;27;20039;-65
2022/07/18 00:51:56;;;;;;;6.78;4.18;;;;;;;;;;5118324;27;20538;-65
2022/07/18 00:54:22;;;;;;;8.75;3.70;;;;;;;;;;5112348;27;20113;-65
2022/07/18 00:56:50;;;;;;;9.10;4.53;;;;;;;;;;5100481;27;20369;-65
2022/07/18 00:59:16;;;;;;;7.97;4.10;;;;;;;;;;5117769;27;20145;-65
2022/07/18 01:01:42;;;;;;;5.85;4.30;;;;;;;;;;5098477;27;20126;-65
2022/07/18 01:04:11;;;;;;;8.95;5.03;;;;;;;;;;5114721;27;20039;-65
2022/07/18 01:06:38;;;;;;;7.85;4.72;;;;;;;;;;5112705;27;20043;-65
2022/07/18 01:09:04;;;;;;;8.45;5.40;;;;;;;;;;5120613;27;20039;-64
2022/07/18 01:11:30;;;;;;;9.73;5.82;;;;;;;;;;5114654;27;20045;-65
2022/07/18 01:13:56;;;;;;;10.63;5.72;;;;;;;;;;5112685;27;20055;-65
2022/07/18 01:16:23;;;;;;;8.70;6.05;;;;;;;;;;5122319;27;20563;-65
2022/07/18 01:18:49;;;;;;;8.02;5.57;;;;;;;;;;5111750;27;20126;-65
2022/07/18 01:21:16;;;;;;;9.60;5.57;;;;;;;;;;5119955;27;20043;-65
2022/07/18 01:23:42;;;;;;;9.68;5.93;;;;;;;;;;5119016;27;20099;-65
2022/07/18 01:26:09;;;;;;;10.20;5.90;;;;;;;;;;5101269;27;20142;-65
2022/07/18 01:28:36;;;;;;;9.20;5.53;;;;;;;;;;5118319;27;20054;-65
2022/07/18 01:31:02;;;;;;;9.98;6.18;;;;;;;;;;5121090;27;20122;-65
2022/07/18 01:33:28;;;;;;;10.50;5.85;;;;;;;;;;5120257;27;20053;-65
2022/07/18 01:35:54;;;;;;;9.73;5.80;;;;;;;;;;5115537;27;20511;-65
2022/07/18 01:38:20;;;;;;;10.85;4.88;;;;;;;;;;5093407;27;20442;-65
2022/07/18 01:40:46;;;;;;;10.18;6.60;;;;;;;;;;5113351;27;20096;-65
2022/07/18 01:43:13;;;;;;;12.98;6.70;;;;;;;;;;5115323;27;20046;-65
2022/07/18 01:45:39;;;;;;;8.93;6.05;;;;;;;;;;5103130;27;20145;-65
2022/07/18 01:48:05;;;;;;;11.35;6.55;;;;;;;;;;5123071;27;20062;-65
2022/07/18 01:50:31;;;;;;;11.13;6.30;;;;;;;;;;5121312;27;20548;-65
2022/07/18 01:52:57;;;;;;;9.95;6.18;;;;;;;;;;5123057;27;20134;-65
2022/07/18 01:55:24;;;;;;;10.65;6.78;;;;;;;;;;5101678;27;20085;-65
2022/07/18 01:57:50;;;;;;;9.00;6.13;;;;;;;;;;5121803;27;20035;-65
2022/07/18 02:00:16;;;;;;;9.25;6.25;;;;;;;;;;5122228;27;20126;-65
2022/07/18 02:02:42;;;;;;;11.18;5.72;;;;;;;;;;5101922;27;20046;-64
2022/07/18 02:05:09;;;;;;;10.75;7.40;;;;;;;;;;5119568;27;20039;-65
2022/07/18 02:07:36;;;;;;;10.25;6.03;;;;;;;;;;5116023;27;20809;-65
2022/07/18 02:10:05;;;;;;;11.52;5.80;;;;;;;;;;5116699;27;20042;-65
2022/07/18 02:12:31;;;;;;;10.30;6.88;;;;;;;;;;5117717;27;20470;-65
2022/07/18 02:14:57;;;;;;;14.68;7.00;;;;;;;;;;5118899;27;20048;-65
2022/07/18 02:17:23;;;;;;;10.25;6.93;;;;;;;;;;5101115;27;20070;-65
2022/07/18 02:19:49;;;;;;;10.57;6.25;;;;;;;;;;5099355;27;20038;-65
2022/07/18 02:22:16;;;;;;;9.10;6.30;;;;;;;;;;5116643;27;20058;-65
2022/07/18 02:24:42;;;;;;;10.25;6.60;;;;;;;;;;5099493;27;20038;-65
2022/07/18 02:27:08;;;;;;;10.05;6.88;;;;;;;;;;5113879;27;20077;-65
2022/07/18 02:29:34;;;;;;;11.20;7.22;;;;;;;;;;5118423;27;20044;-65
2022/07/18 02:32:01;;;;;;;10.70;6.28;;;;;;;;;;5119332;27;20168;-65
2022/07/18 02:34:27;;;;;;;9.93;6.50;;;;;;;;;;5103381;27;20051;-65
2022/07/18 02:36:53;;;;;;;11.80;6.68;;;;;;;;;;5120506;27;20046;-65
2022/07/18 02:39:20;;;;;;;12.60;6.22;;;;;;;;;;5120592;27;20054;-65
2022/07/18 02:41:46;;;;;;;9.32;6.13;;;;;;;;;;5115455;27;20069;-65
2022/07/18 02:44:12;;;;;;;9.63;6.03;;;;;;;;;;5119764;27;20079;-65
2022/07/18 02:46:38;;;;;;;14.23;6.65;;;;;;;;;;5119395;27;20058;-65
2022/07/18 02:49:04;;;;;;;8.98;5.18;;;;;;;;;;5119988;27;20043;-65
2022/07/18 02:51:31;;;;;;;8.57;5.70;;;;;;;;;;5115659;27;20158;-65
2022/07/18 02:53:57;;;;;;;9.55;6.50;;;;;;;;;;5120073;27;20047;-65
2022/07/18 02:56:23;;;;;;;10.25;5.75;;;;;;;;;;5111080;27;20447;-65
2022/07/18 02:58:49;;;;;;;12.32;6.47;;;;;;;;;;5118451;27;20043;-65
2022/07/18 03:01:15;;;;;;;9.88;5.82;;;;;;;;;;5117643;27;20039;-65
2022/07/18 03:03:41;;;;;;;9.20;5.90;;;;;;;;;;5120219;27;20118;-65
2022/07/18 03:06:07;;;;;;;9.05;5.90;;;;;;;;;;5121658;27;20042;-65
2022/07/18 03:08:33;;;;;;;7.85;5.75;;;;;;;;;;5127435;27;20055;-65
2022/07/18 03:11:00;;;;;;;9.23;5.93;;;;;;;;;;5117172;27;20043;-65
2022/07/18 03:13:26;;;;;;;10.32;5.55;;;;;;;;;;5118630;27;20089;-65
2022/07/18 03:15:52;;;;;;;11.18;6.07;;;;;;;;;;5121273;27;20528;-65
2022/07/18 03:18:18;;;;;;;8.70;5.90;;;;;;;;;;5118277;27;20043;-65
2022/07/18 03:20:44;;;;;;;11.73;6.22;;;;;;;;;;5104526;27;20442;-65
2022/07/18 03:23:10;;;;;;;10.07;5.80;;;;;;;;;;5102789;27;20042;-65
2022/07/18 03:25:37;;;;;;;10.57;6.30;;;;;;;;;;5098948;27;20047;-65
2022/07/18 03:28:03;;;;;;;10.52;6.78;;;;;;;;;;5115635;27;20043;-65
2022/07/18 03:30:29;;;;;;;12.45;7.00;;;;;;;;;;5102840;27;20041;-65
2022/07/18 03:32:55;;;;;;;11.52;6.65;;;;;;;;;;5121446;27;20122;-65
2022/07/18 03:35:22;;;;;;;11.30;6.70;;;;;;;;;;5125950;27;20036;-65
2022/07/18 03:37:48;;;;;;;15.68;6.63;;;;;;;;;;5120843;27;20070;-64
2022/07/18 03:40:14;;;;;;;14.52;7.20;;;;;;;;;;5118524;27;20363;-65
2022/07/18 03:42:40;;;;;;;11.98;6.63;;;;;;;;;;5124858;27;20098;-65
2022/07/18 03:45:07;;;;;;;15.05;6.70;;;;;;;;;;5123842;27;20502;-65
2022/07/18 03:47:34;;;;;;;11.82;7.28;;;;;;;;;;5120104;27;20786;-65
2022/07/18 03:50:00;;;;;;;12.25;7.10;;;;;;;;;;5102566;27;20170;-64
2022/07/18 03:52:26;;;;;;;12.68;7.55;;;;;;;;;;5098291;27;20047;-65
2022/07/18 03:54:52;;;;;;;12.80;7.03;;;;;;;;;;5115687;27;20063;-65
2022/07/18 03:57:18;;;;;;;11.57;7.18;;;;;;;;;;5116611;27;21309;-65
2022/07/18 03:59:45;;;;;;;14.48;7.55;;;;;;;;;;5115702;27;20150;-65
2022/07/18 04:02:11;;;;;;;12.48;6.75;;;;;;;;;;5105586;27;20035;-65
2022/07/18 04:04:37;;;;;;;12.68;7.28;;;;;;;;;;5101822;27;20054;-65
2022/07/18 04:07:03;;;;;;;11.82;7.28;;;;;;;;;;5119203;27;20134;-66
2022/07/18 04:09:29;;;;;;;12.73;8.48;;;;;;;;;;5118698;27;20054;-65
2022/07/18 04:11:56;;;;;;;11.90;6.93;;;;;;;;;;5125594;27;20051;-65
2022/07/18 04:14:23;;;;;;;10.98;7.25;;;;;;;;;;5117979;27;20051;-65
2022/07/18 04:16:50;;;;;;;11.93;6.72;;;;;;;;;;5118354;27;20088;-64
2022/07/18 04:19:17;;;;;;;12.45;7.63;;;;;;;;;;5118104;27;20352;-65
2022/07/18 04:21:43;;;;;;;15.13;7.78;;;;;;;;;;5122284;27;20039;-65
2022/07/18 04:24:09;;;;;;;12.05;7.72;;;;;;;;;;5103223;27;20045;-65
2022/07/18 04:26:35;;;;;;;12.80;7.18;;;;;;;;;;5126738;27;20117;-65
2022/07/18 04:29:02;;;;;;;11.27;7.68;;;;;;;;;;5110226;27;20046;-65
2022/07/18 04:31:28;;;;;;;13.95;6.95;;;;;;;;;;5108115;27;20039;-65
2022/07/18 04:33:54;;;;;;;13.30;7.63;;;;;;;;;;5127779;27;20047;-67
2022/07/18 04:36:20;;;;;;;13.25;7.25;;;;;;;;;;5125921;27;20477;-65
2022/07/18 04:38:46;;;;;;;12.30;7.28;;;;;;;;;;5130561;27;20146;-65
2022/07/18 04:41:13;;;;;;;11.30;7.20;;;;;;;;;;5128217;27;20050;-65
2022/07/18 04:43:39;;;;;;;12.85;6.97;;;;;;;;;;5122447;27;20075;-65
2022/07/18 04:46:05;;;;;;;12.75;7.00;;;;;;;;;;5122113;27;20073;-65
2022/07/18 04:48:31;;;;;;;13.05;7.32;;;;;;;;;;5116228;27;20042;-65
2022/07/18 04:50:58;;;;;;;14.00;8.18;;;;;;;;;;5095026;27;20047;-65
2022/07/18 04:53:24;;;;;;;14.27;7.35;;;;;;;;;;5098164;27;20054;-65
2022/07/18 04:55:50;;;;;;;9.85;6.68;;;;;;;;;;5115099;27;20051;-65
2022/07/18 04:58:16;;;;;;;12.82;7.38;;;;;;;;;;5115531;27;20046;-65
2022/07/18 05:00:42;;;;;;;19.25;7.82;;;;;;;;;;5118640;27;20075;-65
2022/07/18 05:03:08;;;;;;;11.88;7.07;;;;;;;;;;5101732;27;20108;-65
2022/07/18 05:05:35;;;;;;;11.65;6.97;;;;;;;;;;5104464;27;20058;-64
2022/07/18 05:08:01;;;;;;;15.32;7.43;;;;;;;;;;5095610;27;20051;-65
2022/07/18 05:10:27;;;;;;;11.18;7.18;;;;;;;;;;5111144;27;20112;-65
2022/07/18 05:12:55;;;;;;;15.90;7.70;;;;;;;;;;5115494;27;20059;-65
2022/07/18 05:15:22;;;;;;;10.70;6.35;;;;;;;;;;5124402;27;20066;-65
2022/07/18 05:17:49;;;;;;;10.48;6.40;;;;;;;;;;5119909;27;20446;-65
2022/07/18 05:20:16;;;;;;;14.98;6.50;;;;;;;;;;5120619;27;20581;-65
2022/07/18 05:22:43;;;;;;;10.82;5.85;;;;;;;;;;5117158;27;20085;-65
2022/07/18 05:25:09;;;;;;;11.52;6.25;;;;;;;;;;5112736;27;20111;-65
2022/07/18 05:27:36;;;;;;;8.57;5.78;;;;;;;;;;5112125;27;20122;-65
2022/07/18 05:30:04;;;;;;;11.90;6.38;;;;;;;;;;5109045;27;20069;-65
2022/07/18 05:32:30;;;;;;;10.25;5.78;;;;;;;;;;5108411;27;20047;-65
2022/07/18 05:34:57;;;;;;;12.38;6.43;;;;;;;;;;5121447;27;20054;-65
2022/07/18 05:37:23;;;;;;;10.70;6.05;;;;;;;;;;5116541;27;20489;-64
2022/07/18 05:39:55;;;;;;;12.52;6.47;;;;;;;;;;5099160;27;20166;-65
2022/07/18 05:42:22;;;;;;;10.90;6.00;;;;;;;;;;5124743;27;20035;-65
2022/07/18 05:44:48;;;;;;;9.15;5.43;;;;;;;;;;5123961;27;20047;-65
2022/07/18 05:47:14;;;;;;;10.23;5.35;;;;;;;;;;5124066;27;20087;-65
2022/07/18 05:49:40;;;;;;;13.52;6.30;;;;;;;;;;5095052;27;20139;-65
2022/07/18 05:52:07;;;;;;;12.60;5.97;;;;;;;;;;5116138;27;20610;-65
2022/07/18 05:54:33;;;;;;;9.45;5.28;;;;;;;;;;5115361;27;20510;-65
2022/07/18 05:56:59;;;;;;;10.52;6.00;;;;;;;;;;5114728;27;20035;-66
2022/07/18 05:59:25;;;;;;;12.02;5.30;;;;;;;;;;5116184;27;20042;-65
2022/07/18 06:01:51;;;;;;;10.82;5.45;;;;;;;;;;5118218;27;20516;-65
2022/07/18 06:04:18;;;;;;;9.63;6.35;;;;;;;;;;5119932;27;20877;-65
2022/07/18 06:06:44;;;;;;;10.63;5.25;;;;;;;;;;5098970;27;20049;-65
2022/07/18 06:09:12;;;;;;;10.85;5.72;;;;;;;;;;5102408;27;20058;-64
2022/07/18 06:11:38;;;;;;;9.88;5.43;;;;;;;;;;5113915;27;20114;-65
2022/07/18 06:14:06;;;;;;;10.98;5.97;;;;;;;;;;5115124;27;20073;-65
2022/07/18 06:16:32;;;;;;;13.15;6.25;;;;;;;;;;5116267;27;20055;-65
2022/07/18 06:18:58;;;;;;;8.00;4.93;;;;;;;;;;5111816;27;20066;-65
2022/07/18 06:21:25;;;;;;;11.07;5.72;;;;;;;;;;5109774;27;20860;-65
2022/07/18 06:23:52;;;;;;;8.43;5.20;;;;;;;;;;5109847;27;20039;-65
2022/07/18 06:26:18;;;;;;;9.93;6.30;;;;;;;;;;5117685;27;20046;-65
2022/07/18 06:28:44;;;;;;;8.85;5.50;;;;;;;;;;5117234;27;20130;-65
2022/07/18 06:31:11;;;;;;;14.07;6.00;;;;;;;;;;5104207;27;20044;-65
2022/07/18 06:33:38;;;;;;;12.48;6.45;;;;;;;;;;5118500;27;20398;-65
2022/07/18 06:36:05;;;;;;;12.43;5.63;;;;;;;;;;5097048;27;20047;-65
2022/07/18 06:38:31;;;;;;;10.05;5.38;;;;;;;;;;5121128;27;20047;-67
2022/07/18 06:40:58;;;;;;;9.55;5.03;;;;;;;;;;5126276;27;20174;-65
2022/07/18 06:43:24;;;;;;;10.48;5.00;;;;;;;;;;5099481;28;20047;-65
2022/07/18 06:45:52;;;;;;;10.07;4.88;;;;;;;;;;5113309;27;20107;-65
2022/07/18 06:48:18;;;;;;;10.20;4.05;;;;;;;;;;5125705;27;20039;-65
2022/07/18 06:50:45;;;;;;;9.55;4.22;;;;;;;;;;5118168;27;20047;-65
2022/07/18 06:53:11;;;;;;;7.13;4.07;;;;;;;;;;5121788;27;20122;-65
2022/07/18 06:55:37;;;;;;;9.00;4.68;;;;;;;;;;5121334;27;20035;-65
2022/07/18 06:58:03;;;;;;;8.95;4.43;;;;;;;;;;5123414;27;20477;-66
2022/07/18 07:00:29;;;;;;;12.70;4.72;;;;;;;;;;5120965;27;20035;-64
2022/07/18 07:02:55;;;;;;;7.00;3.80;;;;;;;;;;5106124;27;20102;-64
2022/07/18 07:05:22;;;;;;;8.40;4.95;;;;;;;;;;5142227;27;20035;-65
2022/07/18 07:07:48;;;;;;;7.65;4.00;;;;;;;;;;5143029;27;20039;-65
2022/07/18 07:10:15;;;;;;;8.48;3.72;;;;;;;;;;5140173;27;20046;-65
2022/07/18 07:12:42;;;;;;;6.22;3.88;;;;;;;;;;5143614;27;20054;-65
2022/07/18 07:15:09;;;;;;;7.53;3.50;;;;;;;;;;5120060;27;20043;-65
2022/07/18 07:17:36;;;;;;;7.72;3.58;;;;;;;;;;5144114;27;20043;-65
2022/07/18 07:20:05;;;;;;;12.60;4.68;;;;;;;;;;5128830;27;20134;-65
2022/07/18 07:22:31;;;;;;;7.35;3.50;;;;;;;;;;5145511;27;20066;-65
2022/07/18 07:24:57;;;;;;;7.68;3.47;;;;;;;;;;5147809;27;20030;-65
2022/07/18 07:27:23;;;;;;;10.68;3.40;;;;;;;;;;5146664;27;20076;-65
2022/07/18 07:29:50;;;;;;;9.15;3.33;;;;;;;;;;5150904;27;20042;-65
2022/07/18 07:32:16;;;;;;;7.88;3.17;;;;;;;;;;5141301;27;20431;-65
2022/07/18 07:34:42;;;;;;;7.70;3.60;;;;;;;;;;5129573;27;20104;-65
2022/07/18 07:37:08;;;;;;;10.30;3.30;;;;;;;;;;5132374;27;20097;-65
2022/07/18 07:39:34;;;;;;;6.53;2.80;;;;;;;;;;5146090;27;20053;-65
2022/07/18 07:42:00;;;;;;;7.18;3.30;;;;;;;;;;5126701;27;20068;-65
2022/07/18 07:44:27;;;;;;;6.65;3.08;;;;;;;;;;5146476;27;20480;-65
2022/07/18 07:46:53;;;;;;;7.18;3.05;;;;;;;;;;5125659;27;20122;-65
2022/07/18 07:49:19;;;;;;;7.45;3.25;;;;;;;;;;5141771;27;20416;-65
2022/07/18 07:51:45;;;;;;;5.57;2.92;;;;;;;;;;5142204;27;20042;-65
2022/07/18 07:54:11;;;;;;;6.45;3.00;;;;;;;;;;5146075;27;20102;-65
2022/07/18 07:56:37;;;;;;;8.95;3.25;;;;;;;;;;5148828;27;20632;-65
2022/07/18 07:59:04;;;;;;;8.45;3.40;;;;;;;;;;5149793;27;20509;-65
2022/07/18 08:01:30;;;;;;;7.05;3.67;;;;;;;;;;5149276;27;20042;-65
2022/07/18 08:03:56;;;;;;;6.57;2.85;;;;;;;;;;5144406;27;20125;-65
2022/07/18 08:06:22;;;;;;;9.40;3.20;;;;;;;;;;5150026;27;20039;-65
2022/07/18 08:08:48;;;;;;;8.60;3.25;;;;;;;;;;5128798;27;20099;-65
2022/07/18 08:11:15;;;;;;;7.22;2.80;;;;;;;;;;5140966;27;20035;-65
2022/07/18 08:13:41;;;;;;;4.85;2.42;;;;;;;;;;5148503;27;20086;-65
2022/07/18 08:16:07;;;;;;;8.15;2.58;;;;;;;;;;5147383;27;20482;-65
2022/07/18 08:18:34;;;;;;;7.43;2.75;;;;;;;;;;5129482;27;20099;-65
2022/07/18 08:21:00;;;;;;;8.27;2.88;;;;;;;;;;5142538;27;20042;-65
2022/07/18 08:23:26;;;;;;;10.55;3.08;;;;;;;;;;5127965;27;20142;-65
2022/07/18 08:25:52;;;;;;;5.78;3.15;;;;;;;;;;5146011;27;20040;-65
2022/07/18 08:28:18;;;;;;;6.97;2.70;;;;;;;;;;5139073;27;20382;-65
2022/07/18 08:30:45;;;;;;;9.02;3.08;;;;;;;;;;5130786;27;20034;-65
2022/07/18 08:33:11;;;;;;;5.72;2.40;;;;;;;;;;5146705;27;20046;-65
2022/07/18 08:35:37;;;;;;;6.50;2.85;;;;;;;;;;5139955;27;20079;-65
2022/07/18 08:38:04;;;;;;;7.80;2.92;;;;;;;;;;5111496;27;20051;-65
2022/07/18 08:40:30;;;;;;;10.27;2.35;;;;;;;;;;5131071;27;20091;-65
2022/07/18 08:42:58;;;;;;;6.85;2.38;;;;;;;;;;5140414;27;20035;-65
2022/07/18 08:45:25;;;;;;;6.40;2.00;;;;;;;;;;5145245;27;20087;-65
2022/07/18 08:47:51;;;;;;;6.95;2.28;;;;;;;;;;5147377;27;20034;-65
2022/07/18 08:50:18;;;;;;;8.88;3.20;;;;;;;;;;5145330;27;20086;-65
2022/07/18 08:52:45;;;;;;;7.75;2.88;;;;;;;;;;5143843;27;20055;-65
2022/07/18 08:55:11;;;;;;;8.07;2.85;;;;;;;;;;5142350;27;20039;-65
2022/07/18 08:57:38;;;;;;;8.93;3.13;;;;;;;;;;5130203;27;20509;-65
2022/07/18 09:00:06;;;;;;;7.63;2.80;;;;;;;;;;5139643;27;20050;-65
2022/07/18 09:02:32;;;;;;;7.53;2.53;;;;;;;;;;5144989;27;20050;-65
2022/07/18 09:05:01;;;;;;;7.32;2.50;;;;;;;;;;5142239;27;20091;-65
2022/07/18 09:07:30;;;;;;;6.28;2.40;;;;;;;;;;5120130;27;20094;-65
2022/07/18 09:09:58;;;;;;;6.97;2.17;;;;;;;;;;5135873;27;20047;-65
2022/07/18 09:12:25;;;;;;;9.68;2.28;;;;;;;;;;5147046;27;20085;-65
2022/07/18 09:14:51;;;;;;;7.97;2.20;;;;;;;;;;5149058;27;20134;-65
2022/07/18 09:17:21;;;;;;;8.93;2.42;;;;;;;;;;5115739;27;20051;-65
2022/07/18 09:20:03;;;;;;;12.57;2.63;;;;;;;;;;5147323;27;20039;-65
2022/07/18 09:22:31;;;;;;;6.90;2.23;;;;;;;;;;5145716;27;20050;-65
2022/07/18 09:25:03;;;;;;;5.72;1.60;;;;;;;;;;5143167;27;20031;-65
2022/07/18 09:27:31;;;;;;;7.45;2.00;;;;;;;;;;5128754;27;20047;-65
2022/07/18 09:30:09;;;;;;;8.07;2.22;;;;;;;;;;5147043;27;20039;-65
2022/07/18 09:32:35;;;;;;;7.47;2.05;;;;;;;;;;5140814;27;20058;-65
2022/07/18 09:35:06;;;;;;;7.75;2.30;;;;;;;;;;5137830;27;20362;-65
2022/07/18 09:37:33;;;;;;;7.43;2.00;;;;;;;;;;5124019;27;20034;-65
2022/07/18 09:40:17;;;;;;;7.75;1.80;;;;;;;;;;5140438;27;20038;-65
2022/07/18 09:42:44;;;;;;;7.10;1.98;;;;;;;;;;5145570;27;20057;-65
2022/07/18 09:45:10;;;;;;;26.15;3.35;;;;;;;;;;5143475;27;20042;-65
2022/07/18 09:47:51;;;;;;;7.75;1.98;;;;;;;;;;5142189;27;20381;-65
2022/07/18 09:50:24;;;;;;;9.20;2.17;;;;;;;;;;5146845;27;20050;-65
2022/07/18 09:52:59;;;;;;;6.90;2.15;;;;;;;;;;5138221;27;20442;-65
2022/07/18 09:55:25;;;;;;;10.55;2.10;;;;;;;;;;5135773;27;20039;-65
2022/07/18 09:58:01;;;;;;;5.43;1.73;;;;;;;;;;5141947;27;20050;-65
2022/07/18 10:00:28;;;;;;;13.73;2.70;;;;;;;;;;5142429;27;20427;-65
2022/07/18 10:02:55;;;;;;;7.53;2.05;;;;;;;;;;5145233;27;20081;-65
2022/07/18 10:05:21;;;;;;;9.40;2.20;;;;;;;;;;5129723;27;20050;-65
2022/07/18 10:07:48;;;;;;;5.15;2.25;;;;;;;;;;5144972;27;20030;-65
2022/07/18 10:10:15;;;;;;;6.47;2.33;;;;;;;;;;5146744;27;20473;-65
2022/07/18 10:12:42;;;;;;;8.55;1.98;;;;;;;;;;5123051;27;20038;-66
2022/07/18 10:15:09;;;;;;;5.68;1.98;;;;;;;;;;5145837;27;20137;-66
2022/07/18 10:17:35;;;;;;;6.68;2.05;;;;;;;;;;5145166;27;20039;-65
2022/07/18 10:20:04;;;;;;;7.10;2.30;;;;;;;;;;5137706;27;20122;-65
2022/07/18 10:22:34;;;;;;;9.25;2.55;;;;;;;;;;5128596;27;20096;-66
2022/07/18 10:25:03;;;;;;;7.15;2.53;;;;;;;;;;5126564;27;20547;-64
2022/07/18 10:27:48;;;;;;;6.43;2.25;;;;;;;;;;5123215;28;20074;-63
2022/07/18 10:30:14;;;;;;;7.60;2.50;;;;;;;;;;5147388;27;20043;-63
2022/07/18 10:32:41;;;;;;;7.05;2.38;;;;;;;;;;5124612;27;20039;-63
2022/07/18 10:35:08;;;;;;;5.88;2.70;;;;;;;;;;5126561;27;20494;-63
2022/07/18 10:37:35;;;;;;;9.40;2.90;;;;;;;;;;5129665;27;20102;-63
2022/07/18 10:40:20;;;;;;;7.55;3.10;;;;;;;;;;5136219;27;20115;-63
2022/07/18 10:42:46;;;;;;;9.88;2.65;;;;;;;;;;5131602;27;20042;-63
2022/07/18 10:45:28;;;;;;;7.75;2.97;;;;;;;;;;5126724;27;20114;-64
2022/07/18 10:47:54;;;;;;;5.75;2.40;;;;;;;;;;5123061;27;20051;-63
2022/07/18 10:50:20;;;;;;;9.80;3.53;;;;;;;;;;5104529;27;20044;-64
2022/07/18 10:52:57;;;;;;;8.40;3.45;;;;;;;;;;5108775;27;20387;-63
2022/07/18 10:55:23;;;;;;;9.55;3.33;;;;;;;;;;5132865;27;20051;-63
2022/07/18 10:57:49;;;;;;;8.18;3.53;;;;;;;;;;5110864;27;20457;-63
2022/07/18 11:00:17;;;;;;;8.70;3.30;;;;;;;;;;5110277;27;20051;-63
2022/07/18 11:02:45;;;;;;;8.55;3.13;;;;;;;;;;5116915;27;20496;-63
2022/07/18 11:05:26;;;;;;;7.40;3.42;;;;;;;;;;5124570;27;20083;-63
2022/07/18 11:07:57;;;;;;;9.20;3.55;;;;;;;;;;5128366;27;20099;-63
2022/07/18 11:10:44;;;;;;;9.02;3.28;;;;;;;;;;5133134;27;20467;-63
2022/07/18 11:13:28;;;;;;;7.18;3.20;;;;;;;;;;5130118;27;20195;-63
2022/07/18 11:15:56;;;;;;;6.50;3.97;;;;;;;;;;5114187;27;20057;-63
2022/07/18 11:18:23;;;;;;;8.32;3.78;;;;;;;;;;5128593;27;20390;-63
2022/07/18 11:20:49;;;;;;;8.40;3.90;;;;;;;;;;5131680;27;20038;-63
2022/07/18 11:23:23;;;;;;;6.65;3.25;;;;;;;;;;5131247;27;20042;-63
2022/07/18 11:25:50;;;;;;;7.38;3.17;;;;;;;;;;5135905;27;20047;-63
2022/07/18 11:28:18;;;;;;;6.78;3.30;;;;;;;;;;5123203;27;20055;-63
2022/07/18 11:30:45;;;;;;;6.57;3.47;;;;;;;;;;5123721;27;20056;-63
2022/07/18 11:33:22;;;;;;;11.30;2.95;;;;;;;;;;5125364;27;20039;-63
2022/07/18 11:35:48;;;;;;;11.85;3.60;;;;;;;;;;5116587;27;20391;-63
2022/07/18 11:38:15;;;;;;;7.47;3.45;;;;;;;;;;5122614;27;20405;-63
2022/07/18 11:40:48;;;;;;;7.45;2.85;;;;;;;;;;5125973;27;20107;-63
2022/07/18 11:43:20;;;;;;;10.25;3.20;;;;;;;;;;5136542;27;20035;-64
2022/07/18 11:45:46;;;;;;;8.07;3.00;;;;;;;;;;5133010;27;20031;-63
2022/07/18 11:48:12;;;;;;;4.55;1.80;;;;;;;;;;5133831;27;20046;-63
2022/07/18 11:50:40;;;;;;;4.43;2.35;;;;;;;;;;5137144;27;20174;-62
2022/07/18 11:53:07;;;;;;;7.13;2.40;;;;;;;;;;5127110;27;20050;-63
2022/07/18 11:55:35;;;;;;;6.25;2.40;;;;;;;;;;5124444;27;20043;-63
2022/07/18 11:58:06;;;;;;;6.50;2.60;;;;;;;;;;5111441;27;20047;-63
2022/07/18 12:00:32;;;;;;;6.65;2.65;;;;;;;;;;5133185;27;20142;-63
2022/07/18 12:03:06;;;;;;;5.93;2.53;;;;;;;;;;5117222;27;20050;-63
2022/07/18 12:05:33;;;;;;;9.45;2.95;;;;;;;;;;5121171;27;20054;-63
2022/07/18 12:07:59;;;;;;;7.05;2.17;;;;;;;;;;5122814;27;20120;-63
2022/07/18 12:10:26;;;;;;;6.57;2.38;;;;;;;;;;5120974;27;20084;-63
2022/07/18 12:12:52;;;;;;;5.68;2.13;;;;;;;;;;5103285;27;20402;-63
2022/07/18 12:15:18;;;;;;;6.80;2.60;;;;;;;;;;5120973;27;20059;-63
2022/07/18 12:17:46;;;;;;;5.85;2.20;;;;;;;;;;5124042;27;20518;-63
2022/07/18 12:20:13;;;;;;;5.30;2.05;;;;;;;;;;5120940;27;20043;-63
2022/07/18 12:23:00;;;;;;;5.75;1.90;;;;;;;;;;5125330;27;20098;-63
2022/07/18 12:25:40;;;;;;;7.40;2.97;;;;;;;;;;5127911;27;20050;-63
2022/07/18 12:28:17;;;;;;;5.22;2.33;;;;;;;;;;5126277;27;20035;-63
2022/07/18 12:30:43;;;;;;;8.10;2.58;;;;;;;;;;5111085;27;20047;-63
2022/07/18 12:33:10;;;;;;;6.30;2.80;;;;;;;;;;5138283;27;20035;-63
2022/07/18 12:35:37;;;;;;;6.32;2.60;;;;;;;;;;5133935;27;20050;-63
2022/07/18 12:38:08;;;;;;;6.57;2.63;;;;;;;;;;5129104;27;20038;-63
2022/07/18 12:40:38;;;;;;;7.53;2.50;;;;;;;;;;5128834;27;20857;-63
2022/07/18 12:43:07;;;;;;;5.93;2.58;;;;;;;;;;5128497;27;20061;-63
2022/07/18 12:45:33;;;;;;;4.88;2.28;;;;;;;;;;5128665;27;20038;-63
2022/07/18 12:47:59;;;;;;;8.05;2.60;;;;;;;;;;5116595;27;20054;-63
2022/07/18 12:50:25;;;;;;;5.95;2.20;;;;;;;;;;5115186;27;20051;-63
2022/07/18 12:52:51;;;;;;;7.00;2.60;;;;;;;;;;5132651;27;20043;-63
2022/07/18 12:55:18;;;;;;;6.65;2.75;;;;;;;;;;5128600;27;20149;-63
2022/07/18 12:57:44;;;;;;;8.15;2.50;;;;;;;;;;5120700;27;20039;-63
2022/07/18 13:00:10;;;;;;;5.13;2.28;;;;;;;;;;5119131;27;20051;-63
2022/07/18 13:02:36;;;;;;;6.78;2.53;;;;;;;;;;5129394;27;20070;-63
2022/07/18 13:05:03;;;;;;;8.38;2.40;;;;;;;;;;5131563;27;20038;-63
2022/07/18 13:07:29;;;;;;;6.50;3.10;;;;;;;;;;5136812;27;20027;-63
2022/07/18 13:09:55;;;;;;;4.03;2.58;;;;;;;;;;5129081;27;20054;-63
2022/07/18 13:12:21;;;;;;;7.25;3.05;;;;;;;;;;5125729;27;20044;-63
2022/07/18 13:14:48;;;;;;;6.22;3.00;;;;;;;;;;5117446;27;20060;-63
2022/07/18 13:17:14;;;;;;;7.45;3.10;;;;;;;;;;5116901;27;20047;-63
2022/07/18 13:19:40;;;;;;;7.40;2.80;;;;;;;;;;5119476;27;20049;-63
2022/07/18 13:22:06;;;;;;;13.13;3.15;;;;;;;;;;5127652;27;20034;-64
2022/07/18 13:24:33;;;;;;;8.13;3.40;;;;;;;;;;5126530;27;20035;-63
2022/07/18 13:26:59;;;;;;;8.32;3.15;;;;;;;;;;5126393;27;20448;-64
2022/07/18 13:29:25;;;;;;;5.50;2.80;;;;;;;;;;5123226;27;20189;-64
2022/07/18 13:31:51;;;;;;;5.35;2.38;;;;;;;;;;5120894;27;20072;-63
2022/07/18 13:34:20;;;;;;;7.43;2.50;;;;;;;;;;5104031;27;20052;-63
2022/07/18 13:36:46;;;;;;;5.20;2.40;;;;;;;;;;5124363;27;20056;-63
2022/07/18 13:39:13;;;;;;;6.88;2.70;;;;;;;;;;5124212;27;20439;-64
2022/07/18 13:41:39;;;;;;;5.80;2.88;;;;;;;;;;5120148;27;20047;-63
2022/07/18 13:44:05;;;;;;;5.10;2.28;;;;;;;;;;5119171;27;20059;-63
2022/07/18 13:46:31;;;;;;;4.32;2.10;;;;;;;;;;5117244;27;20587;-63
2022/07/18 13:48:58;;;;;;;6.60;2.63;;;;;;;;;;5119590;27;20482;-63
2022/07/18 13:51:24;;;;;;;4.45;2.75;;;;;;;;;;5119207;27;20094;-63
2022/07/18 13:53:50;;;;;;;3.58;2.20;;;;;;;;;;5116819;27;20042;-63
2022/07/18 13:56:16;;;;;;;7.65;3.03;;;;;;;;;;5105768;27;20098;-63
2022/07/18 13:58:42;;;;;;;3.38;1.95;;;;;;;;;;5118223;27;20127;-63
2022/07/18 14:01:08;;;;;;;5.22;2.45;;;;;;;;;;5125365;27;20062;-63
2022/07/18 14:03:35;;;;;;;3.70;2.08;;;;;;;;;;5121903;27;20055;-63
2022/07/18 14:06:01;;;;;;;4.53;1.92;;;;;;;;;;5123287;27;20038;-63
2022/07/18 14:08:27;;;;;;;4.82;2.40;;;;;;;;;;5120361;27;20043;-63
2022/07/18 14:10:53;;;;;;;4.35;2.30;;;;;;;;;;5103981;27;20080;-63
2022/07/18 14:13:19;;;;;;;5.75;2.50;;;;;;;;;;5117081;27;20066;-63
2022/07/18 14:15:46;;;;;;;4.40;2.15;;;;;;;;;;5125121;27;20513;-63
2022/07/18 14:18:13;;;;;;;4.28;2.10;;;;;;;;;;5128503;27;20371;-63
2022/07/18 14:20:39;;;;;;;5.50;2.10;;;;;;;;;;5104336;27;20162;-63
2022/07/18 14:23:06;;;;;;;5.57;2.38;;;;;;;;;;5101671;27;20047;-63
2022/07/18 14:25:32;;;;;;;4.53;2.20;;;;;;;;;;5121525;27;20050;-63
2022/07/18 14:27:58;;;;;;;5.20;2.30;;;;;;;;;;5092786;27;20040;-63
2022/07/18 14:30:25;;;;;;;4.97;2.15;;;;;;;;;;5101385;27;20047;-63
2022/07/18 14:32:51;;;;;;;4.03;2.33;;;;;;;;;;5099569;27;20136;-64
2022/07/18 14:35:17;;;;;;;4.32;2.38;;;;;;;;;;5118755;27;20104;-63
2022/07/18 14:37:43;;;;;;;4.20;2.20;;;;;;;;;;5128858;27;20505;-63